首页
METAR-TAF:

METAR-TAF

机场 :

戈尔甘, 伊朗

纬度: 36-49N, 经度: 054-28E, 海拔: 155米

当前天气观测

该预报发布于18分钟前的18:00 UTC
风速14节,风向南转西南
温度 22°C
湿度 78%
气压 1020 hPa
能见度10公里或以上
少量云层高于2500英尺
散云层高于3000英尺
阴天层高于8000英尺

METAR: OING 061800Z 21014KT 9999 FEW025 SCT030 OVC080 22/18 Q1020

时间: 22:48 (18:18 UTC)


TAF: 丢失

超过4000个机场的气象观测和天气预报(METAR&TAF报告)。

可查询的气象台以黄色和红色小点在地图上表示。

将鼠标移到小点上方,可查看气象台名称。

然后点击查看天气观测和预报。

如需切换地图:点击带黑十字的绿色按钮放大地图;点击带横线的绿色按钮缩小地图;或者点击绿色箭头查看邻近地区的地图。


METAR-TAF: